Time;durP1;ratioP1;P1;durP2;ratioP2;P2;SDS_P1;SDS_P2;PMS_P1;PMS_P2;Temp;Humidity;BMP_temperature;BMP_pressure;BME280_temperature;BME280_humidity;BME280_pressure;Samples;Min_cycle;Max_cycle;Signal;HPM_P1;HPM_P2
2022/02/07 00:01:26;;;;;;;0.85;0.63;;;9.90;76.80;;;;;;5095285;28;20486;-71
2022/02/07 00:03:57;;;;;;;2.08;1.00;;;9.90;76.80;;;;;;5077184;28;20081;-71
2022/02/07 00:06:23;;;;;;;1.45;0.60;;;9.80;76.70;;;;;;5094868;28;20123;-72
2022/02/07 00:08:48;;;;;;;0.55;0.30;;;9.80;76.80;;;;;;5095153;28;20612;-72
2022/02/07 00:11:15;;;;;;;1.92;0.68;;;9.80;76.90;;;;;;5095015;28;20035;-72
2022/02/07 00:13:42;;;;;;;0.65;0.50;;;9.80;76.70;;;;;;5076912;28;20031;-72
2022/02/07 00:16:07;;;;;;;2.42;0.40;;;9.80;76.90;;;;;;5095030;28;20032;-72
2022/02/07 00:18:35;;;;;;;1.08;0.47;;;9.80;76.90;;;;;;5094701;28;20051;-72
2022/02/07 00:21:01;;;;;;;1.10;0.40;;;9.80;76.90;;;;;;5094873;28;20478;-72
2022/02/07 00:23:27;;;;;;;1.42;0.50;;;9.80;76.80;;;;;;5076806;28;20059;-72
2022/02/07 00:25:53;;;;;;;0.95;0.40;;;9.90;77.00;;;;;;5095023;28;20028;-71
2022/02/07 00:28:19;;;;;;;2.35;0.60;;;9.80;76.80;;;;;;5076663;28;20070;-71
2022/02/07 00:30:46;;;;;;;0.45;0.40;;;9.80;76.70;;;;;;5076486;28;20020;-72
2022/02/07 00:33:12;;;;;;;0.52;0.35;;;9.80;76.90;;;;;;5050696;28;1239937;-72
2022/02/07 00:35:38;;;;;;;1.13;0.50;;;9.90;77.10;;;;;;5095883;28;20035;-71
2022/02/07 00:38:09;;;;;;;0.47;0.30;;;9.90;77.10;;;;;;5077575;28;20036;-72
2022/02/07 00:40:57;;;;;;;0.28;0.20;;;9.90;77.10;;;;;;5095508;28;20352;-73
2022/02/07 00:45:55;;;;;;;3.60;0.22;;;9.90;77.00;;;;;;5095608;28;20475;-72
2022/02/07 00:48:24;;;;;;;1.90;0.20;;;9.90;76.70;;;;;;5077476;28;20489;-71
2022/02/07 00:50:51;;;;;;;0.10;0.10;;;9.90;76.50;;;;;;5095250;28;20024;-72
2022/02/07 00:53:17;;;;;;;0.10;0.10;;;9.90;76.50;;;;;;5077368;28;20031;-72
2022/02/07 00:55:43;;;;;;;0.47;0.10;;;9.80;76.50;;;;;;5077099;28;20463;-72
2022/02/07 00:58:09;;;;;;;0.20;0.13;;;9.80;76.60;;;;;;5095356;28;20032;-72
2022/02/07 01:00:35;;;;;;;0.22;0.10;;;9.80;76.50;;;;;;5077268;28;20035;-72
2022/02/07 01:03:01;;;;;;;0.10;0.10;;;9.80;76.60;;;;;;5095510;28;20459;-72
2022/02/07 01:05:27;;;;;;;0.20;0.15;;;9.80;76.80;;;;;;5077017;28;20024;-74
2022/02/07 01:07:54;;;;;;;0.25;0.20;;;9.70;76.40;;;;;;5094863;28;20035;-72
2022/02/07 01:11:12;;;;;;;0.88;0.20;;;9.70;76.50;;;;;;5095173;28;20024;-72
2022/02/07 01:13:17;;;;;;;0.50;0.25;;;9.70;76.70;;;;;;5083984;28;20450;-72
2022/02/07 01:21:56;;;;;;;1.08;0.30;;;9.60;77.40;;;;;;5012454;28;20117;-71
2022/02/07 01:54:23;;;;;;;0.13;0.10;;;9.40;76.80;;;;;;4975037;28;20393;-73
2022/02/07 01:56:50;;;;;;;0.25;0.22;;;9.40;76.90;;;;;;5057136;28;20475;-72
2022/02/07 01:59:15;;;;;;;0.10;0.10;;;9.40;76.90;;;;;;5076026;28;20026;-71
2022/02/07 02:01:41;;;;;;;0.10;0.10;;;9.30;76.70;;;;;;5076019;28;20047;-72
2022/02/07 02:04:07;;;;;;;0.10;0.10;;;9.30;76.90;;;;;;5075894;28;20028;-72
2022/02/07 02:06:36;;;;;;;1.55;0.20;;;9.20;76.50;;;;;;5094009;28;20028;-71
2022/02/07 02:09:04;;;;;;;0.40;0.20;;;9.20;76.50;;;;;;5093962;28;20070;-72
2022/02/07 02:11:29;;;;;;;0.32;0.20;;;9.20;76.50;;;;;;5075873;28;20486;-72
2022/02/07 02:37:53;;;;;;;0.45;0.00;;;9.00;76.20;;;;;;5093513;28;20031;-71
2022/02/07 02:45:40;;;;;;;0.40;0.10;;;8.90;75.70;;;;;;5093335;28;20050;-72
2022/02/07 02:48:19;;;;;;;0.00;0.00;;;8.80;76.00;;;;;;5075465;28;20456;-71
2022/02/07 02:50:49;;;;;;;0.20;0.20;;;8.90;76.20;;;;;;5075388;28;20032;-72
2022/02/07 02:53:16;;;;;;;0.95;0.20;;;8.80;76.30;;;;;;5093724;28;20349;-72
2022/02/07 02:55:45;;;;;;;0.17;0.13;;;8.80;76.30;;;;;;5075402;28;20032;-71
2022/02/07 02:58:17;;;;;;;0.20;0.10;;;8.80;76.20;;;;;;5075315;28;20035;-73
2022/02/07 03:00:45;;;;;;;0.20;0.20;;;8.80;76.40;;;;;;5075368;28;20024;-71
2022/02/07 03:03:11;;;;;;;0.10;0.10;;;8.70;76.20;;;;;;5093393;28;20024;-72
2022/02/07 03:05:37;;;;;;;0.32;0.28;;;8.70;75.90;;;;;;5096901;28;20039;-73
2022/02/07 03:08:03;;;;;;;0.88;0.10;;;8.70;76.20;;;;;;5097503;28;20020;-72
2022/02/07 03:10:44;;;;;;;0.05;0.05;;;8.70;75.90;;;;;;5079316;28;20452;-71
2022/02/07 03:13:15;;;;;;;0.47;0.10;;;8.70;75.90;;;;;;5097463;28;20020;-72
2022/02/07 03:18:27;;;;;;;0.60;0.10;;;8.70;76.00;;;;;;5097362;28;20022;-72
2022/02/07 03:20:53;;;;;;;0.15;0.15;;;8.70;76.10;;;;;;5079207;28;20485;-71
2022/02/07 03:23:20;;;;;;;0.20;0.20;;;8.60;75.90;;;;;;5079052;28;20020;-72
2022/02/07 03:25:46;;;;;;;0.63;0.10;;;8.60;75.90;;;;;;5097119;28;20032;-72
2022/02/07 03:28:13;;;;;;;0.10;0.10;;;8.60;76.00;;;;;;5078940;28;20021;-71
2022/02/07 03:30:38;;;;;;;0.10;0.10;;;8.60;76.00;;;;;;5078721;28;20115;-72
2022/02/07 03:33:05;;;;;;;0.10;0.10;;;8.50;75.80;;;;;;5078550;28;20189;-72
2022/02/07 03:35:32;;;;;;;0.13;0.10;;;8.50;75.70;;;;;;5096983;28;20032;-71
2022/02/07 03:37:58;;;;;;;0.40;0.20;;;8.50;75.30;;;;;;5078593;28;20028;-72
2022/02/07 03:40:24;;;;;;;0.10;0.10;;;8.40;75.00;;;;;;5096800;28;20027;-71
2022/02/07 03:42:49;;;;;;;0.47;0.20;;;8.30;74.80;;;;;;5096790;28;20077;-72
2022/02/07 03:45:15;;;;;;;0.73;0.20;;;8.30;75.00;;;;;;5096794;28;20024;-72
2022/02/07 03:47:41;;;;;;;0.20;0.20;;;8.30;74.80;;;;;;5078303;28;20028;-72
2022/02/07 03:50:08;;;;;;;0.50;0.22;;;8.30;75.20;;;;;;5078472;28;20032;-72
2022/02/07 03:52:34;;;;;;;0.17;0.17;;;8.20;74.70;;;;;;5068871;28;20072;-71
2022/02/07 03:54:59;;;;;;;1.50;0.30;;;8.20;74.70;;;;;;5076252;28;20082;-71
2022/02/07 03:57:25;;;;;;;0.10;0.10;;;8.20;74.80;;;;;;5058279;28;20025;-72
2022/02/07 03:59:51;;;;;;;0.20;0.20;;;8.20;75.00;;;;;;5057958;28;20031;-72
2022/02/07 04:02:17;;;;;;;0.20;0.20;;;8.20;75.20;;;;;;5076001;28;20024;-71
2022/02/07 04:04:47;;;;;;;0.47;0.20;;;8.20;75.40;;;;;;5076001;28;20028;-71
2022/02/07 04:07:14;;;;;;;0.95;0.30;;;8.20;74.90;;;;;;5076008;28;20032;-71
2022/02/07 04:09:46;;;;;;;1.70;0.30;;;8.20;75.00;;;;;;5076039;28;20020;-72
2022/02/07 04:12:17;;;;;;;0.20;0.20;;;8.20;75.20;;;;;;5075737;28;20480;-72
2022/02/07 04:14:43;;;;;;;0.50;0.20;;;8.20;75.10;;;;;;5075294;28;20048;-72
2022/02/07 04:17:11;;;;;;;2.38;0.40;;;8.10;75.00;;;;;;5057892;28;20433;-71
2022/02/07 04:19:39;;;;;;;0.32;0.20;;;8.10;74.80;;;;;;5075532;28;20024;-71
2022/02/07 04:22:07;;;;;;;0.75;0.40;;;8.10;74.70;;;;;;5075737;28;20066;-71
2022/02/07 04:24:33;;;;;;;2.17;0.40;;;8.10;74.80;;;;;;5075649;28;20021;-71
2022/02/07 04:27:00;;;;;;;0.63;0.20;;;8.00;74.40;;;;;;5057456;28;20033;-71
2022/02/07 04:29:26;;;;;;;1.10;0.40;;;8.00;74.70;;;;;;5075544;28;20024;-72
2022/02/07 04:31:52;;;;;;;1.00;0.25;;;8.00;74.90;;;;;;5075568;28;20054;-71
2022/02/07 04:34:17;;;;;;;0.52;0.22;;;8.00;74.90;;;;;;5075267;28;20433;-71
2022/02/07 04:36:45;;;;;;;0.57;0.20;;;7.90;74.70;;;;;;5075461;28;20032;-71
2022/02/07 04:39:11;;;;;;;0.55;0.35;;;7.90;74.80;;;;;;5075370;28;20020;-72
2022/02/07 04:41:41;;;;;;;0.98;0.38;;;7.90;75.00;;;;;;5075301;28;20025;-71
2022/02/07 04:44:11;;;;;;;0.57;0.30;;;7.90;75.10;;;;;;5057307;28;20025;-71
2022/02/07 04:57:14;;;;;;;0.40;0.30;;;7.70;74.70;;;;;;5095150;28;20077;-72
2022/02/07 04:59:52;;;;;;;0.20;0.20;;;7.70;74.70;;;;;;5095124;28;20460;-72
2022/02/07 05:04:53;;;;;;;1.52;0.40;;;7.70;74.80;;;;;;5095191;28;20447;-71
2022/02/07 05:15:33;;;;;;;1.08;0.32;;;7.70;74.50;;;;;;5095113;28;19911;-71
2022/02/07 05:18:00;;;;;;;1.38;0.40;;;7.60;74.70;;;;;;5076763;28;20020;-71
2022/02/07 05:20:26;;;;;;;0.90;0.30;;;7.60;74.60;;;;;;5094858;28;20016;-72
2022/02/07 05:22:51;;;;;;;3.65;0.52;;;7.60;74.50;;;;;;5094528;28;20028;-72
2022/02/07 05:25:17;;;;;;;0.70;0.30;;;7.60;74.60;;;;;;5095074;28;20031;-72
2022/02/07 05:27:43;;;;;;;1.65;0.50;;;7.50;75.50;;;;;;5093477;28;20028;-71
2022/02/07 05:30:09;;;;;;;0.52;0.35;;;7.50;74.40;;;;;;5076393;28;20081;-71
2022/02/07 05:32:35;;;;;;;0.95;0.50;;;7.50;74.50;;;;;;5094632;28;20071;-71
2022/02/07 05:35:00;;;;;;;1.95;0.40;;;7.50;74.40;;;;;;5094081;28;20464;-72
2022/02/07 05:37:28;;;;;;;1.40;0.30;;;7.40;74.10;;;;;;5094231;28;20038;-73
2022/02/07 05:40:03;;;;;;;1.77;0.45;;;7.50;74.20;;;;;;5094822;28;20034;-72
2022/02/07 05:42:28;;;;;;;2.00;0.80;;;7.50;74.20;;;;;;5076300;28;20036;-71
2022/02/07 05:44:54;;;;;;;3.58;1.20;;;7.50;73.50;;;;;;5076137;28;20050;-72
2022/02/07 05:47:20;;;;;;;1.95;0.65;;;7.40;73.50;;;;;;5076118;28;20040;-72
2022/02/07 05:49:46;;;;;;;7.43;0.50;;;7.40;73.60;;;;;;5093751;28;20408;-72
2022/02/07 05:52:14;;;;;;;0.98;0.43;;;7.30;73.00;;;;;;5094563;28;20363;-72
2022/02/07 05:54:40;;;;;;;1.65;0.30;;;7.10;72.40;;;;;;5093977;28;20024;-72
2022/02/07 05:57:06;;;;;;;0.70;0.60;;;7.00;72.10;;;;;;5093958;28;20383;-72
2022/02/07 05:59:32;;;;;;;1.00;0.70;;;6.80;72.50;;;;;;5075858;28;20024;-72
2022/02/07 06:01:58;;;;;;;1.70;0.50;;;6.60;72.70;;;;;;5075913;28;20024;-71
2022/02/07 06:04:24;;;;;;;0.88;0.30;;;6.50;73.30;;;;;;5094076;28;20115;-72
2022/02/07 06:06:50;;;;;;;0.35;0.20;;;6.40;73.90;;;;;;5093533;28;20040;-72
2022/02/07 06:09:16;;;;;;;0.52;0.22;;;6.30;74.30;;;;;;5093603;28;20467;-74
2022/02/07 06:11:42;;;;;;;0.10;0.10;;;6.20;74.20;;;;;;5093906;28;20149;-74
2022/02/07 06:14:09;;;;;;;1.55;0.20;;;6.10;75.00;;;;;;5093477;28;20035;-72
2022/02/07 06:16:35;;;;;;;1.05;0.60;;;6.00;74.40;;;;;;5093800;28;20024;-71
2022/02/07 06:19:02;;;;;;;0.52;0.20;;;5.90;74.60;;;;;;5075711;28;20062;-71
2022/02/07 06:21:31;;;;;;;0.73;0.38;;;5.80;75.10;;;;;;5093841;28;20074;-72
2022/02/07 06:23:57;;;;;;;0.40;0.30;;;5.80;75.90;;;;;;5093702;28;20020;-72
2022/02/07 06:26:23;;;;;;;0.30;0.22;;;5.70;76.20;;;;;;5093571;28;20104;-72
2022/02/07 06:28:49;;;;;;;1.15;0.30;;;5.80;76.50;;;;;;5075554;28;20374;-72
2022/02/07 06:31:17;;;;;;;0.40;0.30;;;5.80;76.70;;;;;;5093535;28;20024;-72
2022/02/07 06:33:43;;;;;;;0.40;0.30;;;5.80;76.80;;;;;;5093046;28;20048;-72
2022/02/07 06:36:09;;;;;;;1.33;0.25;;;5.80;76.90;;;;;;5075501;28;20024;-72
2022/02/07 06:38:35;;;;;;;0.50;0.40;;;5.90;77.00;;;;;;5093464;28;20028;-72
2022/02/07 06:41:01;;;;;;;2.17;0.50;;;5.90;77.10;;;;;;5093494;28;20421;-72
2022/02/07 06:43:27;;;;;;;2.95;0.30;;;5.90;77.10;;;;;;5075331;28;20062;-72
2022/02/07 06:45:58;;;;;;;0.77;0.30;;;6.00;77.10;;;;;;5093390;28;20374;-72
2022/02/07 06:48:25;;;;;;;0.30;0.30;;;6.00;77.00;;;;;;5093235;28;20024;-72
2022/02/07 06:50:50;;;;;;;0.60;0.40;;;6.00;77.10;;;;;;5075247;28;20431;-73
2022/02/07 06:53:16;;;;;;;4.85;0.40;;;6.00;77.70;;;;;;5093447;28;20051;-72
2022/02/07 06:55:42;;;;;;;0.68;0.65;;;6.00;77.00;;;;;;5093349;28;20348;-72
2022/02/07 06:58:08;;;;;;;3.15;0.98;;;6.10;77.10;;;;;;5093197;28;20440;-72
2022/02/07 07:00:35;;;;;;;2.03;0.73;;;6.10;77.90;;;;;;5075202;28;20035;-73
2022/02/07 07:03:01;;;;;;;0.98;0.57;;;6.10;77.20;;;;;;5093293;28;20035;-72
2022/02/07 07:05:27;;;;;;;1.73;0.90;;;6.10;77.30;;;;;;5093176;28;20020;-72
2022/02/07 07:07:53;;;;;;;1.35;0.60;;;6.20;77.30;;;;;;5074935;28;20043;-72
2022/02/07 07:10:19;;;;;;;2.08;0.73;;;6.20;77.30;;;;;;5075090;28;20050;-72
2022/02/07 07:12:49;;;;;;;1.80;0.90;;;6.20;77.30;;;;;;5093270;28;20024;-72
2022/02/07 07:15:27;;;;;;;1.98;0.77;;;6.20;77.30;;;;;;5093230;28;20024;-72
2022/02/07 07:17:54;;;;;;;3.90;1.20;;;6.30;77.40;;;;;;5093239;28;20437;-72
2022/02/07 07:20:20;;;;;;;1.10;0.63;;;6.30;77.40;;;;;;5075065;28;20020;-72
2022/02/07 07:22:45;;;;;;;4.38;0.88;;;6.30;77.30;;;;;;5093036;28;20478;-73
2022/02/07 07:25:16;;;;;;;1.67;0.55;;;6.30;77.20;;;;;;5074960;28;20039;-72
2022/02/07 07:28:06;;;;;;;2.90;0.60;;;6.30;77.20;;;;;;5092656;28;20028;-72
2022/02/07 07:30:33;;;;;;;3.55;0.80;;;6.30;77.30;;;;;;5092117;28;20085;-73
2022/02/07 07:33:03;;;;;;;4.05;0.73;;;6.30;77.30;;;;;;5092802;28;20114;-72
2022/02/07 07:35:29;;;;;;;4.65;0.65;;;6.30;76.90;;;;;;5074805;28;20063;-71
2022/02/07 07:37:55;;;;;;;2.95;0.65;;;6.30;76.60;;;;;;5092669;28;20456;-71
2022/02/07 07:40:21;;;;;;;2.83;0.80;;;6.30;76.50;;;;;;5092739;28;20024;-72
2022/02/07 07:42:52;;;;;;;2.65;0.80;;;6.20;76.30;;;;;;5092477;28;20387;-72
2022/02/07 07:45:22;;;;;;;2.28;1.10;;;6.20;76.20;;;;;;5074809;28;20071;-71
2022/02/07 07:47:50;;;;;;;10.50;3.00;;;6.20;76.40;;;;;;5074586;28;20101;-72
2022/02/07 07:50:24;;;;;;;8.43;2.13;;;6.20;76.30;;;;;;5094317;28;20150;-72
2022/02/07 08:03:45;;;;;;;3.35;0.90;;;6.10;76.60;;;;;;5096065;28;20051;-72
2022/02/07 08:06:24;;;;;;;3.38;0.82;;;6.10;76.60;;;;;;5078133;28;20043;-72
2022/02/07 08:11:32;;;;;;;6.00;1.10;;;6.10;76.80;;;;;;5095985;28;20402;-72
2022/02/07 08:13:59;;;;;;;7.43;2.83;;;6.10;77.00;;;;;;5096099;28;20031;-72
2022/02/07 08:16:26;;;;;;;8.13;1.40;;;6.10;77.20;;;;;;5078033;28;20439;-71
2022/02/07 08:18:54;;;;;;;4.80;1.60;;;6.20;77.70;;;;;;5096083;28;20084;-72
2022/02/07 08:21:20;;;;;;;3.80;0.80;;;6.30;77.90;;;;;;5077878;28;20028;-71
2022/02/07 08:23:46;;;;;;;4.70;1.13;;;6.40;78.40;;;;;;5077785;28;20114;-71
2022/02/07 08:26:12;;;;;;;8.00;1.00;;;6.50;78.80;;;;;;5095764;28;20114;-71
2022/02/07 08:28:38;;;;;;;4.45;0.90;;;6.60;78.80;;;;;;5096093;28;20065;-71
2022/02/07 08:31:04;;;;;;;7.22;0.60;;;6.70;78.40;;;;;;5077472;28;20169;-71
2022/02/07 08:33:30;;;;;;;1.92;0.68;;;6.70;77.80;;;;;;5095471;28;20130;-71
2022/02/07 08:35:56;;;;;;;5.82;0.90;;;6.80;77.50;;;;;;5095849;28;20080;-72
2022/02/07 08:38:22;;;;;;;2.67;0.77;;;6.80;77.10;;;;;;5095767;28;20463;-72
2022/02/07 08:40:49;;;;;;;2.50;0.52;;;6.80;76.80;;;;;;5095701;28;20399;-72
2022/02/07 08:43:16;;;;;;;3.53;0.73;;;6.80;77.00;;;;;;5077331;28;20027;-72
2022/02/07 08:45:42;;;;;;;0.88;0.50;;;6.80;77.20;;;;;;5077100;28;20028;-73
2022/02/07 08:48:10;;;;;;;4.85;0.85;;;6.90;77.90;;;;;;5077160;28;20121;-71
2022/02/07 08:50:37;;;;;;;3.55;1.00;;;7.00;78.40;;;;;;5094863;28;20047;-72
2022/02/07 08:53:04;;;;;;;6.85;0.68;;;7.10;78.70;;;;;;5077164;28;20028;-73
2022/02/07 08:55:39;;;;;;;3.97;0.80;;;7.20;79.50;;;;;;5076600;28;20111;-72
2022/02/07 08:58:14;;;;;;;0.93;0.50;;;7.30;78.30;;;;;;5095390;28;20020;-72
2022/02/07 09:09:15;;;;;;;4.80;1.05;;;7.80;77.30;;;;;;5052440;28;20574;-73
2022/02/07 09:11:41;;;;;;;3.00;0.80;;;7.80;77.20;;;;;;5052187;28;20036;-73
2022/02/07 09:14:12;;;;;;;3.33;1.08;;;7.90;76.70;;;;;;5034913;28;20058;-73
2022/02/07 09:16:40;;;;;;;4.57;1.00;;;7.90;76.30;;;;;;5035611;28;20025;-72
2022/02/07 09:19:08;;;;;;;1.75;0.50;;;7.90;75.90;;;;;;5052224;28;20048;-71
2022/02/07 09:21:34;;;;;;;8.43;1.33;;;8.00;75.80;;;;;;5052036;28;20124;-72
2022/02/07 09:24:01;;;;;;;3.58;0.70;;;8.00;75.80;;;;;;5052119;28;20455;-72
2022/02/07 09:26:27;;;;;;;7.05;0.88;;;8.00;75.90;;;;;;5051342;28;20025;-72
2022/02/07 09:28:53;;;;;;;5.38;1.00;;;8.10;74.80;;;;;;5031776;28;20040;-72
2022/02/07 09:31:21;;;;;;;10.38;2.08;;;8.10;74.40;;;;;;5034585;28;20025;-72
2022/02/07 09:33:47;;;;;;;3.53;1.25;;;8.10;74.50;;;;;;5060094;28;20097;-72
2022/02/07 09:36:15;;;;;;;2.40;0.65;;;8.20;74.80;;;;;;5093533;28;20039;-72
2022/02/07 09:38:42;;;;;;;2.90;0.80;;;8.20;74.40;;;;;;5094231;28;20028;-72
2022/02/07 09:41:08;;;;;;;4.20;1.10;;;8.20;73.90;;;;;;5083711;28;20021;-71
2022/02/07 09:43:42;;;;;;;1.73;0.77;;;8.20;72.80;;;;;;5057615;28;20032;-71
2022/02/07 09:46:12;;;;;;;4.43;0.97;;;8.20;72.60;;;;;;5094250;28;20390;-71
2022/02/07 09:48:40;;;;;;;2.97;0.50;;;8.20;72.70;;;;;;5095312;28;20316;-70
2022/02/07 09:51:07;;;;;;;5.47;1.20;;;8.30;72.80;;;;;;5075924;28;20066;-71
2022/02/07 09:53:34;;;;;;;3.42;1.13;;;8.40;73.10;;;;;;5075920;28;20028;-71
2022/02/07 09:56:01;;;;;;;1.50;0.60;;;8.40;72.50;;;;;;5090207;28;20436;-72
2022/02/07 09:58:27;;;;;;;2.25;0.40;;;8.50;72.70;;;;;;5093941;28;20016;-70
2022/02/07 10:00:58;;;;;;;3.83;1.00;;;8.60;73.00;;;;;;5066009;28;20052;-72
2022/02/07 10:03:33;;;;;;;4.22;0.63;;;8.70;72.80;;;;;;5065201;28;20391;-71
2022/02/07 10:06:11;;;;;;;2.95;0.90;;;8.80;73.10;;;;;;5091534;28;20097;-72
2022/02/07 10:13:58;;;;;;;4.38;0.70;;;8.90;70.30;;;;;;5073098;28;20036;-71
2022/02/07 10:22:07;;;;;;;4.00;1.35;;;9.00;67.50;;;;;;5093550;28;20047;-71
2022/02/07 10:38:44;;;;;;;2.97;0.82;;;9.00;63.70;;;;;;5093396;28;20028;-72
2022/02/07 10:41:28;;;;;;;5.78;1.15;;;8.90;63.80;;;;;;5075261;28;20028;-72
2022/02/07 10:44:05;;;;;;;6.25;1.08;;;8.90;64.40;;;;;;5056036;28;20511;-71
2022/02/07 10:46:35;;;;;;;2.35;0.77;;;8.90;65.20;;;;;;5055143;28;20032;-71
2022/02/07 10:49:08;;;;;;;2.17;0.70;;;9.00;65.00;;;;;;5055090;28;20028;-71
2022/02/07 10:51:36;;;;;;;2.17;0.70;;;9.00;63.80;;;;;;5054841;28;20082;-71
2022/02/07 10:54:12;;;;;;;4.80;1.25;;;9.00;63.40;;;;;;5072651;28;20513;-71
2022/02/07 10:56:43;;;;;;;5.05;1.30;;;9.00;63.60;;;;;;5067149;28;20536;-71
2022/02/07 10:59:13;;;;;;;3.35;1.00;;;9.00;64.00;;;;;;5061514;28;20028;-71
2022/02/07 11:04:12;;;;;;;10.45;1.25;;;9.10;63.20;;;;;;5092915;28;20494;-71
2022/02/07 11:06:45;;;;;;;4.07;0.90;;;9.20;63.00;;;;;;5093069;28;20024;-71
2022/02/07 11:09:27;;;;;;;2.78;0.85;;;9.20;63.60;;;;;;5093096;28;20027;-72
2022/02/07 11:17:52;;;;;;;2.03;0.85;;;9.40;61.40;;;;;;5092089;28;20092;-71
2022/02/07 11:23:31;;;;;;;3.38;0.90;;;9.30;60.50;;;;;;5072565;28;20039;-72
2022/02/07 11:26:14;;;;;;;8.15;0.90;;;9.30;59.90;;;;;;5057551;28;20047;-71
2022/02/07 11:28:43;;;;;;;2.80;0.80;;;9.30;61.60;;;;;;5058741;28;20111;-71
2022/02/07 11:31:10;;;;;;;9.57;1.52;;;9.30;61.00;;;;;;5076543;28;20111;-71
2022/02/07 11:34:04;;;;;;;3.95;1.00;;;9.40;61.00;;;;;;5058104;28;20055;-71
2022/02/07 11:36:36;;;;;;;4.97;1.33;;;9.40;60.50;;;;;;5082432;28;20491;-72
2022/02/07 11:39:17;;;;;;;3.05;0.98;;;9.40;60.10;;;;;;5077384;28;20071;-70
2022/02/07 11:42:05;;;;;;;4.68;1.05;;;9.40;60.00;;;;;;5076378;28;20016;-70
2022/02/07 11:44:43;;;;;;;3.03;0.85;;;9.30;59.60;;;;;;5083320;28;20363;-71
2022/02/07 11:47:16;;;;;;;6.82;1.30;;;9.10;59.80;;;;;;5096569;28;20036;-71
2022/02/07 11:49:48;;;;;;;2.72;1.10;;;8.90;59.60;;;;;;5078303;28;20464;-70
2022/02/07 11:52:41;;;;;;;5.22;0.88;;;8.80;60.80;;;;;;5075817;28;20205;-70
2022/02/07 11:55:11;;;;;;;3.75;0.77;;;8.70;62.30;;;;;;5076300;28;20032;-72
2022/02/07 11:57:44;;;;;;;5.30;1.08;;;8.60;63.30;;;;;;5076048;28;20059;-71
2022/02/07 12:00:12;;;;;;;3.13;0.80;;;8.50;64.10;;;;;;5076323;28;20066;-71
2022/02/07 12:02:47;;;;;;;3.75;1.20;;;8.50;64.00;;;;;;5057520;28;20025;-71
2022/02/07 12:05:12;;;;;;;;;;;8.50;65.20;;;;;;5076431;28;20028;-70
2022/02/07 12:07:41;;;;;;;5.20;1.25;;;8.60;65.90;;;;;;5079829;28;19916;-70
2022/02/07 12:10:52;;;;;;;5.28;1.52;;;8.70;65.00;;;;;;5078167;28;20375;-70
2022/02/07 12:13:32;;;;;;;4.18;1.73;;;8.70;64.50;;;;;;5079584;28;20032;-70
2022/02/07 12:16:05;;;;;;;2.70;0.85;;;8.80;65.10;;;;;;5074239;28;20058;-70
2022/02/07 12:18:31;;;;;;;4.57;1.40;;;8.80;64.20;;;;;;5057824;28;20064;-70
2022/02/07 12:21:18;;;;;;;4.88;1.15;;;8.80;63.00;;;;;;5075377;28;20055;-71
2022/02/07 12:23:50;;;;;;;5.88;1.02;;;8.70;62.20;;;;;;5058567;28;20075;-71
2022/02/07 12:26:17;;;;;;;6.47;1.10;;;8.60;62.60;;;;;;5086928;28;20059;-71
2022/02/07 12:28:46;;;;;;;3.90;1.25;;;8.60;62.70;;;;;;5057207;28;20055;-70
2022/02/07 12:31:18;;;;;;;2.85;1.02;;;8.60;62.00;;;;;;5089258;28;20127;-71
2022/02/07 12:33:51;;;;;;;4.00;0.80;;;8.50;61.10;;;;;;5065606;28;20044;-71
2022/02/07 12:36:19;;;;;;;4.75;1.00;;;8.50;61.60;;;;;;5041209;28;20074;-73
2022/02/07 12:38:45;;;;;;;7.10;1.10;;;8.50;62.20;;;;;;5073173;28;20028;-71
2022/02/07 12:41:14;;;;;;;3.65;0.85;;;8.60;62.10;;;;;;5054690;28;20025;-71
2022/02/07 12:43:44;;;;;;;1.45;0.68;;;8.60;62.10;;;;;;5055037;28;20025;-70
2022/02/07 12:46:13;;;;;;;3.55;1.20;;;8.60;62.50;;;;;;5063285;28;20115;-71
2022/02/07 12:48:48;;;;;;;5.28;1.77;;;8.60;62.50;;;;;;5072520;28;20028;-75
2022/02/07 12:51:15;;;;;;;4.60;1.15;;;8.60;62.70;;;;;;5070563;28;20021;-71
2022/02/07 12:53:41;;;;;;;5.03;1.17;;;8.70;62.50;;;;;;5057025;28;20032;-74
2022/02/07 12:56:09;;;;;;;3.17;0.95;;;8.60;62.10;;;;;;5071302;28;20031;-73
2022/02/07 12:58:37;;;;;;;6.20;1.42;;;8.70;62.20;;;;;;5064948;28;20367;-73
2022/02/07 13:01:26;;;;;;;9.73;0.90;;;8.70;61.90;;;;;;5074474;28;20169;-73
2022/02/07 13:03:56;;;;;;;2.58;1.25;;;8.70;62.10;;;;;;5053505;28;20425;-73
2022/02/07 13:06:29;;;;;;;1.88;0.73;;;8.70;62.00;;;;;;5053252;28;20106;-73
2022/02/07 13:08:57;;;;;;;4.57;1.95;;;8.70;61.70;;;;;;5036814;28;20025;-73
2022/02/07 13:11:26;;;;;;;2.45;0.95;;;8.70;61.30;;;;;;5036818;28;20067;-73
2022/02/07 13:13:55;;;;;;;4.75;1.10;;;8.70;60.60;;;;;;5046710;28;20029;-73
2022/02/07 13:16:22;;;;;;;2.05;1.10;;;8.70;60.50;;;;;;5056597;28;20166;-73
2022/02/07 13:18:49;;;;;;;4.18;1.40;;;8.60;60.20;;;;;;5069275;28;20373;-74
2022/02/07 13:21:18;;;;;;;5.40;1.30;;;8.60;60.30;;;;;;5054316;28;20461;-74
2022/02/07 13:23:46;;;;;;;4.03;0.98;;;8.70;60.60;;;;;;5038157;28;20384;-73
2022/02/07 13:26:15;;;;;;;6.75;1.83;;;8.70;60.10;;;;;;5055707;28;20040;-73
2022/02/07 13:28:43;;;;;;;6.18;1.42;;;8.70;60.10;;;;;;5074334;28;20112;-73
2022/02/07 13:31:11;;;;;;;4.85;1.27;;;8.70;59.70;;;;;;5060363;28;20051;-74
2022/02/07 13:33:48;;;;;;;3.65;0.90;;;8.70;59.20;;;;;;5074019;28;20048;-73
2022/02/07 13:36:25;;;;;;;2.63;0.90;;;8.80;59.10;;;;;;5073776;28;20037;-73
2022/02/07 13:39:04;;;;;;;8.13;1.42;;;8.70;59.20;;;;;;5036119;28;20055;-72
2022/02/07 13:41:29;;;;;;;4.07;0.70;;;8.80;59.90;;;;;;5054261;28;20031;-73
2022/02/07 13:43:59;;;;;;;3.45;0.90;;;8.70;59.80;;;;;;5056118;28;20021;-73
2022/02/07 13:46:30;;;;;;;2.78;1.02;;;8.70;60.00;;;;;;5050012;28;20488;-74
2022/02/07 13:48:58;;;;;;;2.38;0.98;;;8.70;60.30;;;;;;5053124;28;20025;-73
2022/02/07 13:51:29;;;;;;;3.38;1.00;;;8.70;60.80;;;;;;5036024;28;20124;-74
2022/02/07 13:53:57;;;;;;;2.00;0.90;;;8.70;60.90;;;;;;5051849;28;20025;-73
2022/02/07 13:56:34;;;;;;;2.25;0.80;;;8.60;60.90;;;;;;5065038;28;20127;-75
2022/02/07 13:59:17;;;;;;;1.20;0.90;;;8.60;60.90;;;;;;5053690;28;20376;-74
2022/02/07 14:01:45;;;;;;;4.53;0.77;;;8.60;61.40;;;;;;5053628;28;20380;-74
2022/02/07 14:04:20;;;;;;;2.25;0.93;;;8.60;61.50;;;;;;5054334;28;20035;-74
2022/02/07 14:07:04;;;;;;;3.05;1.15;;;8.50;61.20;;;;;;5054356;28;20029;-74
2022/02/07 14:09:30;;;;;;;3.20;1.00;;;8.50;61.50;;;;;;5054762;28;20056;-74
2022/02/07 14:11:58;;;;;;;2.40;0.82;;;8.50;61.60;;;;;;5073524;28;20063;-74
2022/02/07 14:14:27;;;;;;;4.75;1.20;;;8.50;61.70;;;;;;5073140;28;20464;-75
2022/02/07 14:16:53;;;;;;;3.28;1.10;;;8.50;61.80;;;;;;5053312;28;20032;-75
2022/02/07 14:19:39;;;;;;;2.40;0.82;;;8.50;62.60;;;;;;5052930;28;20496;-71
2022/02/07 14:22:10;;;;;;;4.20;1.20;;;8.40;61.80;;;;;;5042442;28;20029;-71
2022/02/07 14:24:37;;;;;;;3.40;1.23;;;8.40;61.90;;;;;;5042428;28;20108;-72
2022/02/07 14:27:04;;;;;;;4.82;1.00;;;8.40;61.70;;;;;;5035226;28;20036;-76
2022/02/07 14:29:31;;;;;;;6.70;1.05;;;8.40;61.60;;;;;;5054568;28;20033;-74
2022/02/07 14:31:57;;;;;;;5.75;1.45;;;8.30;61.60;;;;;;5073308;28;20032;-71
2022/02/07 14:34:23;;;;;;;4.85;1.15;;;8.30;61.30;;;;;;5058688;28;20476;-73
2022/02/07 14:36:49;;;;;;;8.20;1.63;;;8.40;61.80;;;;;;5076423;28;20079;-73
2022/02/07 14:39:15;;;;;;;6.60;1.17;;;8.40;62.00;;;;;;5076269;28;20157;-73
2022/02/07 14:41:42;;;;;;;4.50;1.40;;;8.40;62.30;;;;;;5084937;28;20035;-72
2022/02/07 14:44:16;;;;;;;6.22;1.10;;;8.40;61.40;;;;;;5073216;28;20021;-74
2022/02/07 14:46:51;;;;;;;3.88;1.20;;;8.40;61.60;;;;;;5081393;28;20429;-74
2022/02/07 14:49:17;;;;;;;3.50;1.40;;;8.50;61.80;;;;;;5075472;28;20523;-74
2022/02/07 14:51:43;;;;;;;6.68;1.70;;;8.50;61.40;;;;;;5076405;28;20021;-74
2022/02/07 14:54:09;;;;;;;13.98;4.22;;;8.50;60.90;;;;;;5091473;28;20036;-74
2022/02/07 14:56:35;;;;;;;10.75;2.65;;;8.50;61.00;;;;;;5077060;28;20566;-75
2022/02/07 14:59:01;;;;;;;13.88;4.50;;;8.50;61.20;;;;;;5093027;28;20032;-73
2022/02/07 15:01:26;;;;;;;7.50;2.88;;;8.50;61.60;;;;;;5093876;28;20107;-72
2022/02/07 15:03:54;;;;;;;8.38;2.20;;;8.50;60.90;;;;;;5060048;28;20024;-79
2022/02/07 15:06:20;;;;;;;5.43;1.27;;;8.50;60.50;;;;;;5076859;28;20029;-68
2022/02/07 15:08:46;;;;;;;4.45;1.65;;;8.50;60.30;;;;;;5077039;28;20021;-67
2022/02/07 15:11:14;;;;;;;5.68;1.40;;;8.50;60.20;;;;;;5077112;28;20035;-75
2022/02/07 15:13:40;;;;;;;9.63;2.25;;;8.50;59.90;;;;;;5088347;28;20110;-72
2022/02/07 15:16:06;;;;;;;3.55;1.23;;;8.60;59.90;;;;;;5096974;28;20063;-74
2022/02/07 15:18:32;;;;;;;5.07;1.27;;;8.60;59.30;;;;;;5095727;28;20024;-70
2022/02/07 15:21:00;;;;;;;3.60;1.02;;;8.50;59.30;;;;;;5083084;28;20113;-72
2022/02/07 15:23:26;;;;;;;6.07;2.30;;;8.50;58.90;;;;;;5058844;28;20055;-75
2022/02/07 15:25:52;;;;;;;8.77;1.63;;;8.50;59.20;;;;;;5075138;28;20074;-74
2022/02/07 15:28:18;;;;;;;12.05;3.38;;;8.50;58.80;;;;;;5076664;28;20020;-71
2022/02/07 15:30:49;;;;;;;9.38;1.42;;;8.50;59.00;;;;;;5086010;28;20070;-75
2022/02/07 15:33:17;;;;;;;4.93;1.55;;;8.50;58.40;;;;;;5090372;28;20052;-74
2022/02/07 15:35:46;;;;;;;6.20;1.30;;;8.40;58.30;;;;;;5047156;28;20025;-72
2022/02/07 15:38:13;;;;;;;5.32;1.67;;;8.40;58.30;;;;;;5056717;28;20025;-71